createdAt,value
2023-07-24T00:02:13.953Z,8.63
2023-07-24T00:05:16.331Z,6.65
2023-07-24T00:08:18.841Z,8.65
2023-07-24T00:11:21.001Z,7.80
2023-07-24T00:14:24.266Z,9.07
2023-07-24T00:17:26.637Z,6.73
2023-07-24T00:20:29.264Z,7.18
2023-07-24T00:23:31.446Z,6.80
2023-07-24T00:26:33.570Z,7.32
2023-07-24T00:29:35.864Z,7.07
2023-07-24T00:32:38.609Z,8.30
2023-07-24T00:35:41.051Z,7.28
2023-07-24T00:38:43.601Z,7.18
2023-07-24T00:41:47.488Z,6.63
2023-07-24T00:44:50.072Z,7.35
2023-07-24T00:47:52.904Z,14.97
2023-07-24T00:50:55.388Z,8.73
2023-07-24T00:53:58.297Z,6.57
2023-07-24T00:57:05.816Z,6.90
2023-07-24T01:00:08.323Z,8.40
2023-07-24T01:03:10.640Z,7.67
2023-07-24T01:06:12.809Z,7.78
2023-07-24T01:09:15.065Z,8.27
2023-07-24T01:12:22.428Z,8.93
2023-07-24T01:15:34.680Z,7.85
2023-07-24T01:18:38.198Z,7.50
2023-07-24T01:21:45.817Z,9.07
2023-07-24T01:25:01.382Z,8.90
2023-07-24T01:28:07.788Z,9.30
2023-07-24T01:31:10.120Z,10.07
2023-07-24T01:34:12.416Z,8.03
2023-07-24T01:37:14.952Z,9.90
2023-07-24T01:40:17.729Z,11.07
2023-07-24T01:43:19.774Z,8.30
2023-07-24T01:46:24.684Z,8.93
2023-07-24T01:49:26.867Z,9.60
2023-07-24T01:52:28.895Z,7.45
2023-07-24T01:55:30.992Z,10.02
2023-07-24T01:58:33.069Z,10.55
2023-07-24T02:01:35.228Z,10.80
2023-07-24T02:04:37.314Z,9.87
2023-07-24T02:07:39.706Z,9.77
2023-07-24T02:10:42.248Z,11.25
2023-07-24T02:13:46.290Z,12.60
2023-07-24T02:16:49.008Z,14.48
2023-07-24T02:19:51.212Z,9.67
2023-07-24T02:22:53.986Z,9.90
2023-07-24T02:25:56.261Z,9.32
2023-07-24T02:28:58.311Z,11.40
2023-07-24T02:32:00.429Z,11.00
2023-07-24T02:35:03.665Z,11.50
2023-07-24T02:38:06.372Z,9.15
2023-07-24T02:41:08.408Z,11.00
2023-07-24T02:44:11.638Z,9.20
2023-07-24T02:47:13.663Z,10.45
2023-07-24T02:50:23.125Z,12.00
2023-07-24T02:53:25.448Z,11.07
2023-07-24T02:56:27.797Z,13.18
2023-07-24T02:59:31.585Z,10.38
2023-07-24T03:02:34.509Z,12.18
2023-07-24T03:05:36.717Z,13.10
2023-07-24T03:08:38.838Z,10.55
2023-07-24T03:11:40.903Z,11.43
2023-07-24T03:14:42.982Z,16.13
2023-07-24T03:17:45.067Z,14.13
2023-07-24T03:20:47.395Z,14.87
2023-07-24T03:23:49.456Z,14.60
2023-07-24T03:26:52.231Z,14.10
2023-07-24T03:29:56.617Z,13.52
2023-07-24T03:32:59.098Z,15.25
2023-07-24T03:36:01.603Z,16.33
2023-07-24T03:39:04.530Z,16.77
2023-07-24T03:42:06.805Z,15.15
2023-07-24T03:45:09.296Z,15.23
2023-07-24T03:48:11.869Z,18.70
2023-07-24T03:51:13.978Z,15.93
2023-07-24T03:54:16.072Z,15.77
2023-07-24T03:57:18.137Z,12.25
2023-07-24T04:00:20.548Z,17.55
2023-07-24T04:03:23.136Z,18.52
2023-07-24T04:06:25.618Z,21.60
2023-07-24T04:09:28.301Z,21.00
2023-07-24T04:12:30.341Z,23.55
2023-07-24T04:15:32.441Z,17.38
2023-07-24T04:18:34.517Z,16.23
2023-07-24T04:21:36.922Z,19.43
2023-07-24T04:24:39.554Z,16.42
2023-07-24T04:27:41.756Z,15.70
2023-07-24T04:30:46.300Z,17.35
2023-07-24T04:33:48.457Z,17.83
2023-07-24T04:36:50.571Z,20.47
2023-07-24T04:39:55.897Z,17.50
2023-07-24T04:42:59.505Z,17.98
2023-07-24T04:46:01.845Z,16.45
2023-07-24T04:49:04.064Z,16.70
2023-07-24T04:52:06.825Z,22.87
2023-07-24T04:55:09.011Z,17.85
2023-07-24T04:58:11.214Z,20.38
2023-07-24T05:01:13.482Z,19.25
2023-07-24T05:04:15.618Z,19.27
2023-07-24T05:07:17.942Z,18.87
2023-07-24T05:10:20.139Z,17.30
2023-07-24T05:13:22.292Z,20.55
2023-07-24T05:16:24.685Z,21.90
2023-07-24T05:19:26.939Z,20.02
2023-07-24T05:22:29.194Z,20.97
2023-07-24T05:25:31.317Z,21.20
2023-07-24T05:28:33.713Z,23.10
2023-07-24T05:31:36.870Z,23.17
2023-07-24T05:34:39.387Z,22.42
2023-07-24T05:37:41.550Z,20.73
2023-07-24T05:40:43.952Z,21.33
2023-07-24T05:43:46.075Z,21.70
2023-07-24T05:46:49.182Z,21.08
2023-07-24T05:49:51.398Z,19.60
2023-07-24T05:52:53.545Z,21.47
2023-07-24T05:55:59.908Z,18.30
2023-07-24T05:59:02.138Z,18.10
2023-07-24T06:02:05.493Z,17.42
2023-07-24T06:05:07.971Z,16.95
2023-07-24T06:08:12.187Z,16.90
2023-07-24T06:11:14.375Z,18.52
2023-07-24T06:14:16.443Z,15.35
2023-07-24T06:17:18.866Z,15.73
2023-07-24T06:20:20.891Z,14.70
2023-07-24T06:23:22.966Z,15.57
2023-07-24T06:26:25.068Z,15.75
2023-07-24T06:29:30.070Z,16.55
2023-07-24T06:32:32.138Z,15.70
2023-07-24T06:35:34.274Z,15.43
2023-07-24T06:38:36.327Z,17.07
2023-07-24T06:41:38.594Z,14.68
2023-07-24T06:44:40.752Z,16.60
2023-07-24T06:47:46.021Z,15.95
2023-07-24T06:50:48.227Z,15.77
2023-07-24T06:53:50.774Z,16.87
2023-07-24T06:56:52.866Z,17.20
2023-07-24T06:59:55.648Z,14.70
2023-07-24T07:02:57.771Z,17.65
2023-07-24T07:06:00.606Z,14.43
2023-07-24T07:09:02.665Z,16.93
2023-07-24T07:12:04.812Z,15.80
2023-07-24T07:15:07.310Z,14.15
2023-07-24T07:18:09.454Z,13.88
2023-07-24T07:21:12.980Z,14.25
2023-07-24T07:24:15.218Z,17.97
2023-07-24T07:27:18.607Z,14.13
2023-07-24T07:30:20.731Z,14.23
2023-07-24T07:33:23.260Z,14.50
2023-07-24T07:36:29.014Z,14.20
2023-07-24T07:39:32.509Z,14.83
2023-07-24T07:42:39.858Z,14.52
2023-07-24T07:45:42.389Z,14.35
2023-07-24T07:48:44.508Z,12.82
2023-07-24T07:51:46.602Z,15.88
2023-07-24T07:54:49.121Z,15.37
2023-07-24T07:57:54.046Z,12.90
2023-07-24T08:00:56.211Z,15.80
2023-07-24T08:03:59.262Z,12.77
2023-07-24T08:07:01.514Z,14.40
2023-07-24T08:10:04.062Z,11.47
2023-07-24T08:13:06.186Z,12.13
2023-07-24T08:16:20.767Z,14.18
2023-07-24T08:19:23.092Z,10.63
2023-07-24T08:22:25.199Z,13.23
2023-07-24T08:25:27.242Z,12.40
2023-07-24T08:28:29.514Z,11.93
2023-07-24T08:31:31.735Z,13.35
2023-07-24T08:34:33.886Z,11.20
2023-07-24T08:37:36.321Z,12.00
2023-07-24T08:40:38.840Z,15.57
2023-07-24T08:43:42.562Z,15.77
2023-07-24T08:46:47.517Z,13.52
2023-07-24T08:49:51.099Z,13.63
2023-07-24T08:52:53.336Z,12.23
2023-07-24T08:55:56.010Z,13.33
2023-07-24T08:58:58.269Z,11.90
2023-07-24T09:02:00.354Z,12.00
2023-07-24T09:05:02.745Z,11.93
2023-07-24T09:08:04.995Z,12.80
2023-07-24T09:11:07.811Z,11.83
2023-07-24T09:14:14.477Z,14.73
2023-07-24T09:17:22.467Z,14.40
2023-07-24T09:23:33.954Z,13.85
2023-07-24T09:26:36.051Z,10.87
2023-07-24T09:29:38.170Z,11.73
2023-07-24T09:32:40.338Z,15.60
2023-07-24T09:35:42.433Z,15.85
2023-07-24T09:38:45.048Z,12.73
2023-07-24T09:41:50.911Z,13.37
2023-07-24T09:44:53.210Z,11.27
2023-07-24T09:48:02.631Z,13.80
2023-07-24T09:51:09.295Z,12.27
2023-07-24T09:54:16.869Z,11.13
2023-07-24T09:57:21.922Z,17.07
2023-07-24T10:00:25.482Z,14.88
2023-07-24T10:03:28.090Z,15.52
2023-07-24T10:06:31.318Z,15.93
2023-07-24T10:09:34.333Z,14.25
2023-07-24T10:12:37.643Z,17.17
2023-07-24T10:15:40.418Z,12.80
2023-07-24T10:18:45.140Z,15.40
2023-07-24T10:21:50.560Z,15.55
2023-07-24T10:24:53.084Z,14.43
2023-07-24T10:27:55.760Z,19.73
2023-07-24T10:31:00.613Z,18.73
2023-07-24T10:34:06.460Z,15.88
2023-07-24T10:37:10.093Z,14.60
2023-07-24T10:40:20.608Z,15.45
2023-07-24T10:43:23.099Z,14.50
2023-07-24T10:46:25.251Z,18.27
2023-07-24T10:49:27.372Z,17.67
2023-07-24T10:52:30.881Z,17.08
2023-07-24T10:55:33.016Z,16.63
2023-07-24T10:58:37.248Z,16.87
2023-07-24T11:01:40.411Z,16.45
2023-07-24T11:04:42.587Z,19.02
2023-07-24T11:07:44.664Z,16.67
2023-07-24T11:10:50.825Z,16.23
2023-07-24T11:13:52.877Z,17.73
2023-07-24T11:16:55.072Z,17.08
2023-07-24T11:20:09.411Z,19.63
2023-07-24T11:23:11.695Z,19.35
2023-07-24T11:26:13.954Z,19.65
2023-07-24T11:29:16.285Z,18.70
2023-07-24T11:32:21.907Z,21.63
2023-07-24T11:35:24.552Z,16.73
2023-07-24T11:38:26.784Z,20.15
2023-07-24T11:41:29.616Z,16.83
2023-07-24T11:44:31.995Z,17.93
2023-07-24T11:47:42.303Z,18.38
2023-07-24T11:50:45.379Z,19.17
2023-07-24T11:53:47.534Z,17.25
2023-07-24T11:56:49.604Z,19.60
2023-07-24T11:59:51.752Z,18.43
2023-07-24T12:02:59.950Z,17.73
2023-07-24T12:06:03.403Z,16.40
2023-07-24T12:09:09.375Z,16.40
2023-07-24T12:12:16.257Z,18.27
2023-07-24T12:15:18.608Z,17.10
2023-07-24T12:18:20.872Z,18.85
2023-07-24T12:21:22.940Z,16.58
2023-07-24T12:24:28.015Z,20.75
2023-07-24T12:27:30.628Z,16.80
2023-07-24T12:30:35.947Z,18.00
2023-07-24T12:33:38.091Z,13.63
2023-07-24T12:36:40.223Z,17.40
2023-07-24T12:39:42.396Z,16.25
2023-07-24T12:42:44.712Z,15.43
2023-07-24T12:45:46.838Z,18.50
2023-07-24T12:48:49.019Z,15.68
2023-07-24T12:51:51.132Z,16.80
2023-07-24T12:55:01.805Z,14.75
2023-07-24T12:58:05.583Z,13.38
2023-07-24T13:01:08.146Z,15.67
2023-07-24T13:04:10.232Z,16.88
2023-07-24T13:07:20.647Z,15.02
2023-07-24T13:10:23.119Z,19.15
2023-07-24T13:13:25.219Z,14.38
2023-07-24T13:16:28.801Z,17.30
2023-07-24T13:19:31.140Z,15.02
2023-07-24T13:22:33.201Z,15.10
2023-07-24T13:25:35.421Z,15.85
2023-07-24T13:28:38.135Z,14.38
2023-07-24T13:31:42.123Z,14.30
2023-07-24T13:34:44.462Z,13.30
2023-07-24T13:37:46.821Z,14.68
2023-07-24T13:40:49.128Z,10.18
2023-07-24T13:43:51.253Z,13.18
2023-07-24T13:46:53.990Z,13.73
2023-07-24T13:49:56.599Z,12.95
2023-07-24T13:53:06.655Z,13.65
2023-07-24T13:56:09.060Z,13.75
2023-07-24T13:59:11.954Z,10.88
2023-07-24T14:02:14.264Z,13.73
2023-07-24T14:05:17.069Z,12.65
2023-07-24T14:08:19.490Z,14.10
2023-07-24T14:11:21.652Z,13.65
2023-07-24T14:14:27.298Z,15.80
2023-07-24T14:17:29.913Z,17.37
2023-07-24T14:20:32.013Z,13.88
2023-07-24T14:23:35.037Z,16.85
2023-07-24T14:26:40.231Z,18.60
2023-07-24T14:29:42.359Z,14.07
2023-07-24T14:33:16.964Z,13.77
2023-07-24T14:36:19.423Z,14.88
2023-07-24T14:39:22.363Z,13.65
2023-07-24T14:42:24.463Z,17.45
2023-07-24T14:45:26.957Z,14.55
2023-07-24T14:48:29.065Z,15.33
2023-07-24T14:51:31.599Z,14.02
2023-07-24T14:54:36.462Z,16.05
2023-07-24T14:57:40.854Z,13.13
2023-07-24T15:00:44.497Z,15.30
2023-07-24T15:03:48.766Z,17.23
2023-07-24T15:06:53.282Z,15.15
2023-07-24T15:09:55.591Z,15.32
2023-07-24T15:12:57.762Z,15.00
2023-07-24T15:16:00.387Z,14.98
2023-07-24T15:19:02.464Z,15.43
2023-07-24T15:22:04.618Z,16.08
2023-07-24T15:25:07.116Z,16.70
2023-07-24T15:28:09.359Z,15.88
2023-07-24T15:31:15.841Z,16.90
2023-07-24T15:34:18.024Z,16.40
2023-07-24T15:37:20.122Z,17.48
2023-07-24T15:40:22.513Z,15.82
2023-07-24T15:43:26.214Z,15.45
2023-07-24T15:46:33.166Z,17.27
2023-07-24T15:49:35.544Z,17.23
2023-07-24T15:52:37.644Z,17.20
2023-07-24T15:55:40.321Z,14.45
2023-07-24T15:58:44.075Z,18.63
2023-07-24T16:01:46.208Z,17.10
2023-07-24T16:04:51.875Z,21.53
2023-07-24T16:07:54.648Z,13.90
2023-07-24T16:10:57.102Z,15.75
2023-07-24T16:13:59.648Z,13.32
2023-07-24T16:17:03.083Z,14.55
2023-07-24T16:20:05.613Z,14.27
2023-07-24T16:23:07.744Z,15.18
2023-07-24T16:26:09.900Z,15.13
2023-07-24T16:29:12.049Z,16.45
2023-07-24T16:32:14.151Z,16.35
2023-07-24T16:35:17.200Z,14.77
2023-07-24T16:38:19.420Z,17.60
2023-07-24T16:41:21.517Z,16.42
2023-07-24T16:44:33.291Z,14.02
2023-07-24T16:47:39.714Z,18.70
2023-07-24T16:50:42.598Z,14.67
2023-07-24T16:53:44.816Z,17.25
2023-07-24T16:56:46.984Z,15.93
2023-07-24T16:59:50.179Z,15.00
2023-07-24T17:02:53.789Z,15.57
2023-07-24T17:05:56.164Z,17.47
2023-07-24T17:08:58.398Z,18.13
2023-07-24T17:12:01.758Z,13.85
2023-07-24T17:15:04.962Z,18.80
2023-07-24T17:18:08.713Z,14.30
2023-07-24T17:21:11.979Z,15.33
2023-07-24T17:24:14.374Z,18.13
2023-07-24T17:27:16.962Z,22.15
2023-07-24T17:30:19.252Z,16.42
2023-07-24T17:33:23.946Z,17.88
2023-07-24T17:36:27.346Z,18.37
2023-07-24T17:39:29.713Z,14.93
2023-07-24T17:42:31.978Z,16.92
2023-07-24T17:45:35.473Z,17.13
2023-07-24T17:48:39.931Z,14.32
2023-07-24T17:51:42.404Z,14.43
2023-07-24T17:54:44.959Z,18.00
2023-07-24T17:57:51.656Z,16.67
2023-07-24T18:00:53.797Z,20.90
2023-07-24T18:03:56.269Z,16.80
2023-07-24T18:06:59.604Z,16.30
2023-07-24T18:10:04.889Z,16.75
2023-07-24T18:13:07.369Z,14.65
2023-07-24T18:16:09.601Z,15.93
2023-07-24T18:19:11.696Z,14.95
2023-07-24T18:22:14.136Z,18.10
2023-07-24T18:25:16.169Z,17.38
2023-07-24T18:28:18.688Z,16.60
2023-07-24T18:31:21.078Z,16.63
2023-07-24T18:34:23.356Z,15.55
2023-07-24T18:37:28.050Z,17.17
2023-07-24T18:40:30.896Z,14.82
2023-07-24T18:43:33.079Z,15.40
2023-07-24T18:46:36.199Z,20.10
2023-07-24T18:49:38.349Z,15.52
2023-07-24T18:52:41.263Z,16.83
2023-07-24T18:55:49.919Z,17.10
2023-07-24T18:58:52.092Z,18.45
2023-07-24T19:01:54.419Z,15.70
2023-07-24T19:04:57.647Z,18.85
2023-07-24T19:07:59.837Z,14.47
2023-07-24T19:11:02.330Z,15.90
2023-07-24T19:14:04.820Z,18.45
2023-07-24T19:17:07.290Z,16.98
2023-07-24T19:20:11.494Z,16.42
2023-07-24T19:23:13.680Z,14.63
2023-07-24T19:26:16.005Z,16.35
2023-07-24T19:29:18.307Z,14.82
2023-07-24T19:32:21.482Z,15.60
2023-07-24T19:35:23.776Z,13.20
2023-07-24T19:38:26.022Z,16.33
2023-07-24T19:41:28.299Z,15.07
2023-07-24T19:44:32.243Z,17.80
2023-07-24T19:47:35.468Z,14.75
2023-07-24T19:50:37.803Z,16.27
2023-07-24T19:53:40.077Z,13.63
2023-07-24T19:56:42.214Z,16.45
2023-07-24T19:59:44.281Z,14.45
2023-07-24T20:02:46.527Z,15.57
2023-07-24T20:05:54.270Z,16.15
2023-07-24T20:08:56.372Z,16.93
2023-07-24T20:11:58.460Z,12.68
2023-07-24T20:15:00.520Z,14.90
2023-07-24T20:18:04.270Z,14.15
2023-07-24T20:21:06.352Z,19.20
2023-07-24T20:24:12.148Z,14.73
2023-07-24T20:27:14.346Z,14.38
2023-07-24T20:30:16.641Z,16.08
2023-07-24T20:33:19.043Z,15.57
2023-07-24T20:36:23.854Z,14.90
2023-07-24T20:39:30.095Z,14.43
2023-07-24T20:42:32.258Z,13.25
2023-07-24T20:45:36.180Z,16.02
2023-07-24T20:48:38.558Z,12.80
2023-07-24T20:51:42.001Z,17.05
2023-07-24T20:54:44.224Z,16.43
2023-07-24T20:57:46.297Z,17.35
2023-07-24T21:00:48.499Z,16.38
2023-07-24T21:03:54.365Z,16.63
2023-07-24T21:06:56.807Z,12.70
2023-07-24T21:09:58.811Z,15.70
2023-07-24T21:13:00.939Z,18.90
2023-07-24T21:16:03.036Z,17.25
2023-07-24T21:19:05.257Z,13.57
2023-07-24T21:22:07.356Z,13.60
2023-07-24T21:25:09.611Z,17.37
2023-07-24T21:28:12.864Z,13.88
2023-07-24T21:31:15.807Z,17.63
2023-07-24T21:34:19.121Z,15.10
2023-07-24T21:37:21.310Z,16.77
2023-07-24T21:40:23.344Z,15.23
2023-07-24T21:43:25.531Z,15.90
2023-07-24T21:46:30.953Z,14.40
2023-07-24T21:49:35.283Z,16.85
2023-07-24T21:52:37.459Z,15.38
2023-07-24T21:55:40.415Z,16.33
2023-07-24T21:58:42.712Z,14.32
2023-07-24T22:01:45.059Z,14.88
2023-07-24T22:04:47.201Z,17.38
2023-07-24T22:07:50.102Z,13.70
2023-07-24T22:10:52.503Z,17.33
2023-07-24T22:13:54.915Z,17.63
2023-07-24T22:16:57.076Z,19.17
2023-07-24T22:19:59.394Z,16.67
2023-07-24T22:23:01.936Z,15.63
2023-07-24T22:26:04.239Z,14.53
2023-07-24T22:29:06.924Z,18.25
2023-07-24T22:32:09.406Z,17.30
2023-07-24T22:35:11.680Z,17.02
2023-07-24T22:38:13.823Z,15.00
2023-07-24T22:41:16.257Z,21.00
2023-07-24T22:44:18.336Z,14.35
2023-07-24T22:47:21.580Z,13.40
2023-07-24T22:50:24.256Z,14.95
2023-07-24T22:53:26.340Z,15.70
2023-07-24T22:56:28.630Z,13.77
2023-07-24T22:59:30.938Z,14.73
2023-07-24T23:02:33.029Z,15.80
2023-07-24T23:05:35.529Z,14.25
2023-07-24T23:08:37.667Z,15.43
2023-07-24T23:11:39.816Z,17.73
2023-07-24T23:14:41.905Z,13.20
2023-07-24T23:17:44.068Z,14.10
2023-07-24T23:20:46.112Z,13.10
2023-07-24T23:23:48.279Z,19.48
2023-07-24T23:26:50.988Z,13.90
2023-07-24T23:29:53.367Z,13.52
2023-07-24T23:32:55.669Z,15.35
2023-07-24T23:35:57.720Z,12.73
2023-07-24T23:39:02.886Z,16.85
2023-07-24T23:42:05.334Z,12.43
2023-07-24T23:45:07.721Z,16.67
2023-07-24T23:48:10.077Z,15.70
2023-07-24T23:51:16.623Z,13.20
2023-07-24T23:54:18.952Z,15.82
2023-07-24T23:57:21.028Z,13.97
